Time;durP1;ratioP1;P1;durP2;ratioP2;P2;SDS_P1;SDS_P2;PMS_P1;PMS_P2;Temp;Humidity;BMP_temperature;BMP_pressure;BME280_temperature;BME280_humidity;BME280_pressure;Samples;Min_cycle;Max_cycle;Signal;HPM_P1;HPM_P2
2022/07/10 00:00:21;;;;;;;74.18;32.15;;;;;;;;;;1611687;30;21591;-68
2022/07/10 00:01:13;;;;;;;73.20;29.85;;;;;;;;;;1610069;30;21801;-70
2022/07/10 00:02:05;;;;;;;78.43;30.50;;;;;;;;;;1607015;30;21583;-69
2022/07/10 00:02:58;;;;;;;76.38;31.98;;;;;;;;;;1607886;30;21747;-69
2022/07/10 00:03:54;;;;;;;77.38;34.00;;;;;;;;;;1613559;30;22029;-70
2022/07/10 00:04:45;;;;;;;80.93;34.70;;;;;;;;;;1612803;30;21696;-69
2022/07/10 00:05:38;;;;;;;77.32;33.58;;;;;;;;;;1614781;30;22152;-69
2022/07/10 00:06:29;;;;;;;77.68;32.28;;;;;;;;;;1614720;30;21981;-69
2022/07/10 00:07:22;;;;;;;81.63;33.28;;;;;;;;;;1604319;30;21698;-70
2022/07/10 00:08:13;;;;;;;69.82;31.27;;;;;;;;;;1606076;30;21683;-70
2022/07/10 00:09:06;;;;;;;75.95;32.92;;;;;;;;;;1609793;30;22476;-69
2022/07/10 00:09:57;;;;;;;78.32;33.35;;;;;;;;;;1610674;30;21672;-69
2022/07/10 00:10:50;;;;;;;79.82;32.88;;;;;;;;;;1614335;30;21729;-69
2022/07/10 00:11:42;;;;;;;90.65;35.95;;;;;;;;;;1607800;30;22022;-70
2022/07/10 00:12:33;;;;;;;70.70;32.42;;;;;;;;;;1607094;30;21819;-70
2022/07/10 00:13:26;;;;;;;83.28;34.38;;;;;;;;;;1612949;30;21644;-69
2022/07/10 00:14:17;;;;;;;82.32;33.95;;;;;;;;;;1612007;30;21605;-69
2022/07/10 00:15:11;;;;;;;93.38;34.22;;;;;;;;;;1614643;30;21571;-70
2022/07/10 00:16:03;;;;;;;86.63;34.55;;;;;;;;;;1616244;30;21576;-70
2022/07/10 00:16:55;;;;;;;81.57;32.38;;;;;;;;;;1619728;30;21571;-68
2022/07/10 00:17:47;;;;;;;73.18;31.75;;;;;;;;;;1615510;30;21867;-69
2022/07/10 00:18:39;;;;;;;74.75;33.00;;;;;;;;;;1611208;30;22017;-70
2022/07/10 00:19:32;;;;;;;69.68;30.67;;;;;;;;;;1607477;30;21571;-69
2022/07/10 00:20:25;;;;;;;74.10;31.67;;;;;;;;;;1615479;30;21918;-70
2022/07/10 00:21:16;;;;;;;73.75;32.70;;;;;;;;;;1612801;30;21670;-69
2022/07/10 00:22:09;;;;;;;76.70;32.42;;;;;;;;;;1604466;30;22151;-68
2022/07/10 00:23:01;;;;;;;77.22;32.50;;;;;;;;;;1605283;30;21880;-70
2022/07/10 00:23:54;;;;;;;62.60;31.17;;;;;;;;;;1614630;30;21578;-69
2022/07/10 00:24:46;;;;;;;73.80;32.88;;;;;;;;;;1615648;30;21709;-69
2022/07/10 00:25:38;;;;;;;75.07;32.53;;;;;;;;;;1619704;30;21752;-69
2022/07/10 00:26:29;;;;;;;71.80;31.10;;;;;;;;;;1616672;30;21668;-68
2022/07/10 00:27:23;;;;;;;79.13;32.65;;;;;;;;;;1614870;30;21573;-69
2022/07/10 00:28:14;;;;;;;71.00;32.38;;;;;;;;;;1617272;30;21715;-68
2022/07/10 00:29:06;;;;;;;85.30;31.02;;;;;;;;;;1612197;30;22060;-68
2022/07/10 00:29:58;;;;;;;75.88;32.08;;;;;;;;;;1612469;30;21605;-69
2022/07/10 00:30:50;;;;;;;73.07;32.05;;;;;;;;;;1610963;30;22009;-68
2022/07/10 00:31:41;;;;;;;65.85;30.20;;;;;;;;;;1618759;30;21579;-69
2022/07/10 00:32:33;;;;;;;73.60;31.23;;;;;;;;;;1610436;30;22172;-69
2022/07/10 00:33:24;;;;;;;66.18;29.10;;;;;;;;;;1608098;30;21615;-69
2022/07/10 00:34:17;;;;;;;73.70;28.77;;;;;;;;;;1609457;30;22159;-69
2022/07/10 00:35:09;;;;;;;66.78;29.25;;;;;;;;;;1614554;30;21601;-69
2022/07/10 00:36:02;;;;;;;71.57;29.38;;;;;;;;;;1614301;30;22078;-69
2022/07/10 00:36:53;;;;;;;69.70;28.05;;;;;;;;;;1613250;30;21726;-69
2022/07/10 00:37:45;;;;;;;64.20;28.15;;;;;;;;;;1605049;30;22303;-68
2022/07/10 00:38:37;;;;;;;68.35;28.95;;;;;;;;;;1604610;30;21994;-70
2022/07/10 00:39:28;;;;;;;67.45;30.20;;;;;;;;;;1608693;30;21575;-70
2022/07/10 00:40:21;;;;;;;67.43;29.08;;;;;;;;;;1612610;30;21670;-69
2022/07/10 00:41:12;;;;;;;63.10;28.02;;;;;;;;;;1611755;30;21699;-69
2022/07/10 00:42:07;;;;;;;64.03;26.65;;;;;;;;;;1612510;30;22691;-68
2022/07/10 00:43:00;;;;;;;57.47;26.98;;;;;;;;;;1611474;30;21778;-67
2022/07/10 00:43:52;;;;;;;59.58;27.10;;;;;;;;;;1608985;30;21758;-67
2022/07/10 00:44:45;;;;;;;59.63;26.70;;;;;;;;;;1610383;30;21671;-68
2022/07/10 00:45:36;;;;;;;62.42;28.05;;;;;;;;;;1605833;30;22647;-67
2022/07/10 00:46:30;;;;;;;54.78;26.60;;;;;;;;;;1604675;30;21598;-68
2022/07/10 00:47:21;;;;;;;60.63;25.95;;;;;;;;;;1602449;30;21646;-68
2022/07/10 00:48:14;;;;;;;58.78;26.45;;;;;;;;;;1606331;30;21691;-68
2022/07/10 00:49:05;;;;;;;56.45;24.77;;;;;;;;;;1609520;30;22163;-68
2022/07/10 00:49:57;;;;;;;52.50;24.95;;;;;;;;;;1602593;30;22260;-68
2022/07/10 00:50:50;;;;;;;46.20;25.23;;;;;;;;;;1603735;30;21737;-67
2022/07/10 00:51:42;;;;;;;48.63;25.38;;;;;;;;;;1610268;30;22106;-67
2022/07/10 00:52:38;;;;;;;55.10;25.65;;;;;;;;;;1612097;30;21689;-69
2022/07/10 00:53:30;;;;;;;61.35;26.02;;;;;;;;;;1606372;30;21625;-67
2022/07/10 00:54:22;;;;;;;50.50;24.63;;;;;;;;;;1604545;30;22492;-68
2022/07/10 00:55:15;;;;;;;57.85;24.70;;;;;;;;;;1608531;30;21617;-68
2022/07/10 00:56:07;;;;;;;51.88;22.77;;;;;;;;;;1613965;30;22416;-67
2022/07/10 00:57:00;;;;;;;54.30;24.80;;;;;;;;;;1610752;30;22084;-67
2022/07/10 00:57:52;;;;;;;52.03;24.13;;;;;;;;;;1605176;30;22030;-68
2022/07/10 00:58:45;;;;;;;47.10;23.35;;;;;;;;;;1606693;30;21621;-69
2022/07/10 00:59:36;;;;;;;51.08;24.42;;;;;;;;;;1608518;30;22441;-69
2022/07/10 01:00:29;;;;;;;47.40;24.13;;;;;;;;;;1611252;30;21993;-67
2022/07/10 01:01:22;;;;;;;48.75;23.98;;;;;;;;;;1601187;30;21994;-68
2022/07/10 01:02:15;;;;;;;47.53;23.50;;;;;;;;;;1604327;30;22627;-68
2022/07/10 01:03:06;;;;;;;51.35;23.90;;;;;;;;;;1613959;30;21722;-68
2022/07/10 01:03:59;;;;;;;49.40;23.67;;;;;;;;;;1619762;30;21909;-69
2022/07/10 01:04:51;;;;;;;46.35;22.30;;;;;;;;;;1605997;30;22459;-68
2022/07/10 01:05:43;;;;;;;41.22;22.08;;;;;;;;;;1602868;30;21687;-69
2022/07/10 01:06:36;;;;;;;48.15;22.98;;;;;;;;;;1610380;30;22301;-67
2022/07/10 01:07:29;;;;;;;38.05;21.30;;;;;;;;;;1611820;30;21774;-68
2022/07/10 01:08:20;;;;;;;45.30;21.52;;;;;;;;;;1611968;30;21558;-68
2022/07/10 01:09:12;;;;;;;47.25;21.40;;;;;;;;;;1610230;30;21750;-68
2022/07/10 01:10:05;;;;;;;34.15;19.67;;;;;;;;;;1608565;30;21602;-68
2022/07/10 01:10:58;;;;;;;42.85;21.35;;;;;;;;;;1611266;30;21948;-67
2022/07/10 01:11:50;;;;;;;33.47;19.75;;;;;;;;;;1611732;30;21664;-67
2022/07/10 01:12:43;;;;;;;38.55;21.13;;;;;;;;;;1612941;30;21769;-67
2022/07/10 01:13:34;;;;;;;35.28;19.85;;;;;;;;;;1613843;30;21549;-67
2022/07/10 01:14:27;;;;;;;42.65;20.35;;;;;;;;;;1610929;30;21781;-68
2022/07/10 01:15:18;;;;;;;46.45;21.08;;;;;;;;;;1609282;30;22473;-69
2022/07/10 01:16:11;;;;;;;34.85;19.60;;;;;;;;;;1610367;30;21624;-67
2022/07/10 01:17:04;;;;;;;39.53;18.83;;;;;;;;;;1611595;30;21651;-68
2022/07/10 01:17:57;;;;;;;33.30;18.55;;;;;;;;;;1611336;30;21649;-68
2022/07/10 01:18:48;;;;;;;41.45;20.13;;;;;;;;;;1614184;30;22210;-68
2022/07/10 01:19:40;;;;;;;35.80;18.90;;;;;;;;;;1610258;30;22621;-68
2022/07/10 01:20:32;;;;;;;26.50;18.05;;;;;;;;;;1613458;30;22237;-67
2022/07/10 01:21:26;;;;;;;26.58;16.20;;;;;;;;;;1609349;30;21633;-69
2022/07/10 01:22:18;;;;;;;27.95;17.60;;;;;;;;;;1610935;30;22748;-67
2022/07/10 01:23:10;;;;;;;34.13;17.38;;;;;;;;;;1611613;30;21714;-67
2022/07/10 01:24:06;;;;;;;38.72;16.50;;;;;;;;;;1608451;30;21623;-68
2022/07/10 01:24:58;;;;;;;27.15;17.17;;;;;;;;;;1611121;30;22271;-68
2022/07/10 01:25:50;;;;;;;40.83;17.55;;;;;;;;;;1614271;30;22241;-69
2022/07/10 01:26:43;;;;;;;28.85;16.33;;;;;;;;;;1609891;30;21699;-69
2022/07/10 01:27:34;;;;;;;37.85;16.73;;;;;;;;;;1612091;30;21593;-68
2022/07/10 01:28:28;;;;;;;32.20;15.60;;;;;;;;;;1610199;30;22138;-68
2022/07/10 01:29:22;;;;;;;25.80;15.88;;;;;;;;;;1612914;30;22143;-70
2022/07/10 01:30:14;;;;;;;29.20;15.88;;;;;;;;;;1605628;30;21608;-69
2022/07/10 01:31:05;;;;;;;31.20;17.08;;;;;;;;;;1602196;30;21616;-69
2022/07/10 01:31:59;;;;;;;33.92;15.65;;;;;;;;;;1605598;30;22690;-69
2022/07/10 01:32:52;;;;;;;28.75;15.40;;;;;;;;;;1610756;30;22435;-69
2022/07/10 01:33:44;;;;;;;22.27;14.68;;;;;;;;;;1602877;30;21738;-69
2022/07/10 01:34:35;;;;;;;28.25;15.15;;;;;;;;;;1602750;30;21630;-68
2022/07/10 01:35:28;;;;;;;21.95;14.05;;;;;;;;;;1608778;30;21804;-68
2022/07/10 01:36:20;;;;;;;30.45;14.65;;;;;;;;;;1612283;30;21676;-68
2022/07/10 01:37:13;;;;;;;25.67;14.15;;;;;;;;;;1613310;30;21623;-68
2022/07/10 01:38:05;;;;;;;21.40;13.63;;;;;;;;;;1609454;30;21626;-68
2022/07/10 01:38:58;;;;;;;24.48;14.00;;;;;;;;;;1608570;30;21589;-69
2022/07/10 01:39:49;;;;;;;28.02;13.80;;;;;;;;;;1604892;30;21861;-68
2022/07/10 01:40:41;;;;;;;23.00;13.13;;;;;;;;;;1609910;30;21765;-68
2022/07/10 01:41:33;;;;;;;20.77;13.07;;;;;;;;;;1610403;30;22481;-69
2022/07/10 01:42:25;;;;;;;22.70;13.35;;;;;;;;;;1603814;30;21615;-68
2022/07/10 01:43:16;;;;;;;23.38;13.52;;;;;;;;;;1602836;30;22164;-68
2022/07/10 01:44:08;;;;;;;18.95;12.75;;;;;;;;;;1613098;30;21920;-69
2022/07/10 01:44:59;;;;;;;16.58;12.50;;;;;;;;;;1617391;30;21686;-68
2022/07/10 01:45:52;;;;;;;25.92;13.00;;;;;;;;;;1597872;30;22023;-69
2022/07/10 01:46:45;;;;;;;25.00;13.18;;;;;;;;;;1596157;30;21694;-69
2022/07/10 01:47:38;;;;;;;28.58;13.15;;;;;;;;;;1606451;30;21626;-69
2022/07/10 01:48:29;;;;;;;18.52;12.80;;;;;;;;;;1609442;30;21629;-68
2022/07/10 01:49:21;;;;;;;20.15;12.18;;;;;;;;;;1614169;30;22054;-68
2022/07/10 01:50:13;;;;;;;16.95;11.82;;;;;;;;;;1610314;30;21808;-68
2022/07/10 01:51:05;;;;;;;20.90;12.90;;;;;;;;;;1612782;30;22254;-68
2022/07/10 01:51:57;;;;;;;17.08;11.77;;;;;;;;;;1609968;30;21668;-68
2022/07/10 01:52:50;;;;;;;15.55;11.13;;;;;;;;;;1605720;30;21602;-69
2022/07/10 01:53:42;;;;;;;13.85;10.50;;;;;;;;;;1613044;30;21621;-69
2022/07/10 01:54:34;;;;;;;13.48;10.48;;;;;;;;;;1608876;30;21649;-67
2022/07/10 01:55:25;;;;;;;14.02;10.90;;;;;;;;;;1606814;30;21811;-69
2022/07/10 01:56:18;;;;;;;18.80;10.63;;;;;;;;;;1612204;30;21733;-69
2022/07/10 01:57:09;;;;;;;16.48;11.30;;;;;;;;;;1611356;30;21661;-69
2022/07/10 01:58:01;;;;;;;20.58;11.05;;;;;;;;;;1609552;30;21664;-69
2022/07/10 01:58:53;;;;;;;14.63;10.00;;;;;;;;;;1612611;30;22452;-68
2022/07/10 01:59:45;;;;;;;18.13;10.57;;;;;;;;;;1612498;30;21564;-69
2022/07/10 02:00:36;;;;;;;12.73;9.90;;;;;;;;;;1602820;30;22095;-68
2022/07/10 02:01:29;;;;;;;20.85;10.48;;;;;;;;;;1601561;30;22525;-67
2022/07/10 02:02:21;;;;;;;18.15;10.82;;;;;;;;;;1606221;30;22369;-68
2022/07/10 02:05:31;;;;;;;11.05;9.85;;;;;;;;;;1611573;30;22418;-69
2022/07/10 02:06:24;;;;;;;11.05;9.75;;;;;;;;;;1608715;30;22493;-69
2022/07/10 02:07:17;;;;;;;11.55;9.88;;;;;;;;;;1601986;30;21948;-68
2022/07/10 02:08:10;;;;;;;13.65;9.23;;;;;;;;;;1605020;30;21813;-68
2022/07/10 02:09:02;;;;;;;10.05;8.80;;;;;;;;;;1606692;30;22525;-68
2022/07/10 02:09:54;;;;;;;13.68;9.40;;;;;;;;;;1610049;30;21569;-69
2022/07/10 02:10:45;;;;;;;16.52;8.98;;;;;;;;;;1609126;30;21692;-68
2022/07/10 02:11:37;;;;;;;13.98;9.68;;;;;;;;;;1610769;30;21923;-68
2022/07/10 02:12:28;;;;;;;9.85;8.57;;;;;;;;;;1609509;30;21614;-66
2022/07/10 02:13:21;;;;;;;9.85;8.80;;;;;;;;;;1602622;30;21616;-66
2022/07/10 02:14:32;;;;;;;12.30;9.27;;;;;;;;;;1600397;30;22597;-68
2022/07/10 02:15:24;;;;;;;11.63;8.65;;;;;;;;;;1602700;30;21995;-68
2022/07/10 02:16:16;;;;;;;11.07;9.45;;;;;;;;;;1603675;30;22149;-67
2022/07/10 02:17:09;;;;;;;9.23;8.35;;;;;;;;;;1604347;30;21609;-67
2022/07/10 02:18:00;;;;;;;14.15;8.75;;;;;;;;;;1606308;30;22505;-68
2022/07/10 02:18:52;;;;;;;10.60;8.88;;;;;;;;;;1610016;30;21857;-66
2022/07/10 02:19:44;;;;;;;11.00;8.70;;;;;;;;;;1613116;30;21627;-67
2022/07/10 02:20:36;;;;;;;9.50;8.10;;;;;;;;;;1613030;30;21595;-66
2022/07/10 02:21:27;;;;;;;12.27;8.70;;;;;;;;;;1610857;30;22126;-67
2022/07/10 02:22:19;;;;;;;10.02;9.10;;;;;;;;;;1610947;30;21597;-67
2022/07/10 02:23:12;;;;;;;15.43;9.02;;;;;;;;;;1610130;30;22059;-67
2022/07/10 02:24:05;;;;;;;13.98;8.25;;;;;;;;;;1610292;30;21702;-68
2022/07/10 02:24:56;;;;;;;9.15;8.25;;;;;;;;;;1610349;30;21605;-67
2022/07/10 02:25:48;;;;;;;9.05;7.93;;;;;;;;;;1605646;30;21725;-68
2022/07/10 02:26:39;;;;;;;8.70;7.80;;;;;;;;;;1608064;30;21979;-67
2022/07/10 02:27:32;;;;;;;7.78;7.00;;;;;;;;;;1617036;30;21614;-68
2022/07/10 02:28:23;;;;;;;9.25;8.20;;;;;;;;;;1607990;30;21704;-67
2022/07/10 02:29:15;;;;;;;11.90;7.97;;;;;;;;;;1600716;30;21989;-68
2022/07/10 02:30:07;;;;;;;8.93;7.72;;;;;;;;;;1607740;30;22456;-67
2022/07/10 02:31:00;;;;;;;9.60;7.50;;;;;;;;;;1610644;30;21643;-68
2022/07/10 02:31:51;;;;;;;14.15;7.70;;;;;;;;;;1611319;30;21554;-68
2022/07/10 02:32:43;;;;;;;9.70;7.60;;;;;;;;;;1610835;30;21637;-68
2022/07/10 02:33:36;;;;;;;9.55;7.93;;;;;;;;;;1614193;30;22737;-69
2022/07/10 02:34:29;;;;;;;11.68;7.35;;;;;;;;;;1609853;30;22367;-68
2022/07/10 02:35:20;;;;;;;9.40;7.85;;;;;;;;;;1607075;30;22011;-68
2022/07/10 02:36:12;;;;;;;8.70;6.80;;;;;;;;;;1612206;30;21749;-67
2022/07/10 02:37:04;;;;;;;8.75;7.13;;;;;;;;;;1603433;30;22066;-68
2022/07/10 02:37:56;;;;;;;11.95;6.88;;;;;;;;;;1599542;30;22172;-68
2022/07/10 02:38:49;;;;;;;9.27;6.93;;;;;;;;;;1610048;30;21775;-67
2022/07/10 02:39:41;;;;;;;8.38;6.28;;;;;;;;;;1609396;30;21997;-68
2022/07/10 02:40:32;;;;;;;6.80;6.25;;;;;;;;;;1607892;30;21622;-68
2022/07/10 02:41:25;;;;;;;9.07;7.28;;;;;;;;;;1615272;30;22166;-68
2022/07/10 02:42:16;;;;;;;7.95;7.18;;;;;;;;;;1609016;30;21647;-68
2022/07/10 02:43:08;;;;;;;8.30;7.50;;;;;;;;;;1608232;30;21743;-68
2022/07/10 02:43:59;;;;;;;7.30;6.60;;;;;;;;;;1610637;30;21640;-67
2022/07/10 02:44:52;;;;;;;8.23;7.47;;;;;;;;;;1610345;30;21709;-68
2022/07/10 02:45:43;;;;;;;9.25;6.90;;;;;;;;;;1608551;30;21616;-68
2022/07/10 02:46:35;;;;;;;7.25;6.55;;;;;;;;;;1611163;30;21614;-67
2022/07/10 02:47:26;;;;;;;7.85;7.07;;;;;;;;;;1610487;30;21741;-68
2022/07/10 02:48:19;;;;;;;8.80;6.20;;;;;;;;;;1611012;30;21704;-68
2022/07/10 02:49:10;;;;;;;6.25;5.65;;;;;;;;;;1610982;30;22611;-68
2022/07/10 02:50:02;;;;;;;6.35;5.75;;;;;;;;;;1600989;30;22069;-68
2022/07/10 02:50:54;;;;;;;7.00;5.40;;;;;;;;;;1599400;30;21727;-68
2022/07/10 02:51:46;;;;;;;7.13;6.45;;;;;;;;;;1608967;30;21692;-68
2022/07/10 02:52:37;;;;;;;7.13;6.03;;;;;;;;;;1610639;30;21999;-67
2022/07/10 02:53:30;;;;;;;7.40;6.80;;;;;;;;;;1605720;30;21592;-68
2022/07/10 02:54:23;;;;;;;8.07;6.35;;;;;;;;;;1603954;30;22380;-69
2022/07/10 02:55:15;;;;;;;6.78;6.05;;;;;;;;;;1608756;30;21648;-68
2022/07/10 02:56:07;;;;;;;6.28;5.63;;;;;;;;;;1610653;30;21687;-68
2022/07/10 02:56:59;;;;;;;7.20;5.82;;;;;;;;;;1600979;30;21694;-68
2022/07/10 02:57:50;;;;;;;7.30;6.57;;;;;;;;;;1596717;30;21625;-68
2022/07/10 02:58:43;;;;;;;7.10;6.47;;;;;;;;;;1606945;30;21786;-68
2022/07/10 02:59:34;;;;;;;7.07;6.18;;;;;;;;;;1610334;30;21614;-67
2022/07/10 03:00:31;;;;;;;6.13;5.63;;;;;;;;;;1599344;30;21635;-68
2022/07/10 03:01:29;;;;;;;6.20;5.60;;;;;;;;;;1598965;30;21719;-67
2022/07/10 03:02:21;;;;;;;8.73;5.80;;;;;;;;;;1606233;30;22340;-68
2022/07/10 03:03:13;;;;;;;6.43;5.82;;;;;;;;;;1610694;30;21875;-69
2022/07/10 03:04:05;;;;;;;6.20;5.60;;;;;;;;;;1603075;30;21916;-68
2022/07/10 03:04:56;;;;;;;5.55;5.05;;;;;;;;;;1608701;30;22655;-68
2022/07/10 03:05:48;;;;;;;9.57;5.63;;;;;;;;;;1610943;30;21786;-67
2022/07/10 03:06:39;;;;;;;7.20;5.93;;;;;;;;;;1611579;30;22248;-68
2022/07/10 03:07:32;;;;;;;6.60;5.95;;;;;;;;;;1605143;30;21756;-67
2022/07/10 03:08:23;;;;;;;6.28;5.68;;;;;;;;;;1612437;30;22268;-68
2022/07/10 03:09:15;;;;;;;5.85;5.22;;;;;;;;;;1611626;30;21608;-68
2022/07/10 03:10:09;;;;;;;5.30;4.88;;;;;;;;;;1610922;30;21621;-66
2022/07/10 03:11:02;;;;;;;5.72;5.22;;;;;;;;;;1613058;30;21650;-67
2022/07/10 03:11:53;;;;;;;5.50;5.00;;;;;;;;;;1609385;30;22106;-68
2022/07/10 03:12:46;;;;;;;6.35;5.13;;;;;;;;;;1610784;30;22245;-68
2022/07/10 03:13:37;;;;;;;6.38;4.78;;;;;;;;;;1611432;30;21639;-67
2022/07/10 03:14:29;;;;;;;6.47;4.97;;;;;;;;;;1608822;30;21678;-68
2022/07/10 03:15:21;;;;;;;5.75;5.15;;;;;;;;;;1601657;30;21992;-68
2022/07/10 03:16:13;;;;;;;8.00;4.75;;;;;;;;;;1604544;30;21602;-67
2022/07/10 03:17:04;;;;;;;5.43;5.00;;;;;;;;;;1607557;30;21720;-68
2022/07/10 03:17:57;;;;;;;5.53;5.00;;;;;;;;;;1611539;30;21734;-68
2022/07/10 03:18:48;;;;;;;5.70;5.20;;;;;;;;;;1611954;30;22353;-67
2022/07/10 03:19:40;;;;;;;5.68;5.07;;;;;;;;;;1609423;30;21652;-67
2022/07/10 03:20:32;;;;;;;7.50;5.20;;;;;;;;;;1609247;30;22257;-68
2022/07/10 03:21:24;;;;;;;5.30;4.90;;;;;;;;;;1608229;30;21657;-68
2022/07/10 03:22:15;;;;;;;7.60;4.75;;;;;;;;;;1609794;30;21637;-68
2022/07/10 03:23:07;;;;;;;4.75;4.45;;;;;;;;;;1610438;30;22343;-68
2022/07/10 03:23:58;;;;;;;6.32;5.82;;;;;;;;;;1608231;30;21861;-69
2022/07/10 03:24:51;;;;;;;5.28;4.82;;;;;;;;;;1613431;30;21654;-68
2022/07/10 03:25:43;;;;;;;5.43;5.03;;;;;;;;;;1608576;30;22043;-67
2022/07/10 03:26:35;;;;;;;4.85;4.45;;;;;;;;;;1606789;30;21684;-69
2022/07/10 03:27:27;;;;;;;4.93;4.07;;;;;;;;;;1612275;30;21706;-69
2022/07/10 03:28:19;;;;;;;5.80;4.72;;;;;;;;;;1611505;30;22097;-67
2022/07/10 03:29:10;;;;;;;5.57;4.82;;;;;;;;;;1605403;30;22006;-68
2022/07/10 03:30:04;;;;;;;4.95;4.55;;;;;;;;;;1610826;30;22647;-68
2022/07/10 03:30:55;;;;;;;5.63;5.03;;;;;;;;;;1613107;30;21618;-68
2022/07/10 03:31:47;;;;;;;6.40;5.10;;;;;;;;;;1610724;30;21826;-67
2022/07/10 03:32:39;;;;;;;4.95;4.47;;;;;;;;;;1609476;30;22129;-68
2022/07/10 03:33:31;;;;;;;5.43;4.95;;;;;;;;;;1600318;30;22072;-68
2022/07/10 03:34:22;;;;;;;4.70;4.30;;;;;;;;;;1602715;30;22600;-68
2022/07/10 03:35:14;;;;;;;10.80;5.25;;;;;;;;;;1609253;30;21803;-68
2022/07/10 03:36:07;;;;;;;4.18;3.80;;;;;;;;;;1618999;30;23125;-68
2022/07/10 03:36:58;;;;;;;5.15;4.75;;;;;;;;;;1612202;30;21659;-68
2022/07/10 03:37:51;;;;;;;4.97;4.60;;;;;;;;;;1607894;30;21651;-68
2022/07/10 03:38:43;;;;;;;4.57;3.80;;;;;;;;;;1614910;30;21622;-68
2022/07/10 03:39:36;;;;;;;6.50;4.78;;;;;;;;;;1609887;30;21611;-67
2022/07/10 03:40:28;;;;;;;4.13;3.83;;;;;;;;;;1610415;30;21930;-67
2022/07/10 03:41:21;;;;;;;6.75;3.95;;;;;;;;;;1607809;30;22520;-68
2022/07/10 03:42:12;;;;;;;4.22;3.92;;;;;;;;;;1602463;30;21680;-68
2022/07/10 03:43:05;;;;;;;4.43;4.07;;;;;;;;;;1604318;30;22189;-67
2022/07/10 03:43:56;;;;;;;4.70;4.30;;;;;;;;;;1613217;30;22156;-69
2022/07/10 03:44:48;;;;;;;4.60;4.20;;;;;;;;;;1612831;30;22461;-68
2022/07/10 03:45:40;;;;;;;4.25;3.95;;;;;;;;;;1609326;30;22083;-68
2022/07/10 03:46:32;;;;;;;4.15;3.83;;;;;;;;;;1606207;30;21617;-68
2022/07/10 03:47:23;;;;;;;8.85;4.25;;;;;;;;;;1601465;30;21740;-69
2022/07/10 03:48:15;;;;;;;5.28;4.40;;;;;;;;;;1603364;30;21798;-68
2022/07/10 03:49:06;;;;;;;5.05;4.65;;;;;;;;;;1609466;30;21617;-69
2022/07/10 03:49:59;;;;;;;4.63;4.28;;;;;;;;;;1604418;30;21628;-68
2022/07/10 03:50:59;;;;;;;4.32;3.95;;;;;;;;;;1605382;30;21771;-68
2022/07/10 03:52:01;;;;;;;3.97;3.67;;;;;;;;;;1612830;30;21684;-69
2022/07/10 03:52:53;;;;;;;4.88;4.43;;;;;;;;;;1607286;30;21649;-69
2022/07/10 03:53:45;;;;;;;4.03;3.72;;;;;;;;;;1605300;30;21826;-67
2022/07/10 03:54:36;;;;;;;5.03;4.63;;;;;;;;;;1605360;30;21648;-69
2022/07/10 03:55:28;;;;;;;4.55;3.97;;;;;;;;;;1610685;30;21742;-68
2022/07/10 03:58:52;;;;;;;4.15;3.85;;;;;;;;;;1603356;30;22069;-68
2022/07/10 03:59:44;;;;;;;5.47;4.20;;;;;;;;;;1603599;30;21751;-68
2022/07/10 04:00:38;;;;;;;4.60;4.25;;;;;;;;;;1601706;30;21898;-68
2022/07/10 04:01:30;;;;;;;3.83;3.53;;;;;;;;;;1603674;30;21651;-69
2022/07/10 04:02:21;;;;;;;3.97;3.67;;;;;;;;;;1609698;30;21803;-68
2022/07/10 04:03:14;;;;;;;4.43;3.92;;;;;;;;;;1609757;30;21991;-68
2022/07/10 04:04:05;;;;;;;4.63;4.22;;;;;;;;;;1610771;30;21760;-68
2022/07/10 04:04:57;;;;;;;4.22;3.92;;;;;;;;;;1608254;30;23605;-68
2022/07/10 04:05:48;;;;;;;4.57;4.28;;;;;;;;;;1610735;30;22501;-68
2022/07/10 04:06:40;;;;;;;3.83;3.53;;;;;;;;;;1609557;30;21778;-68
2022/07/10 04:07:32;;;;;;;9.50;3.67;;;;;;;;;;1607432;30;21694;-68
2022/07/10 04:08:24;;;;;;;6.68;4.07;;;;;;;;;;1611812;30;22019;-68
2022/07/10 04:09:16;;;;;;;3.75;3.45;;;;;;;;;;1607597;30;21626;-68
2022/07/10 04:10:10;;;;;;;4.50;4.10;;;;;;;;;;1603359;30;21619;-68
2022/07/10 04:11:01;;;;;;;4.30;3.67;;;;;;;;;;1605603;30;21717;-68
2022/07/10 04:11:55;;;;;;;4.68;4.00;;;;;;;;;;1612449;30;22446;-68
2022/07/10 04:12:47;;;;;;;4.65;4.22;;;;;;;;;;1607984;30;22581;-69
2022/07/10 04:13:39;;;;;;;4.25;3.90;;;;;;;;;;1614244;30;22043;-68
2022/07/10 04:14:31;;;;;;;7.15;3.58;;;;;;;;;;1608624;30;21614;-68
2022/07/10 04:15:24;;;;;;;7.05;4.07;;;;;;;;;;1607888;30;21634;-67
2022/07/10 04:16:15;;;;;;;4.13;3.60;;;;;;;;;;1611962;30;21671;-68
2022/07/10 04:17:08;;;;;;;4.72;3.58;;;;;;;;;;1595122;30;21650;-68
2022/07/10 04:17:59;;;;;;;3.88;3.58;;;;;;;;;;1604920;30;21664;-69
2022/07/10 04:18:51;;;;;;;5.45;3.65;;;;;;;;;;1601923;30;21869;-68
2022/07/10 04:19:43;;;;;;;3.72;3.45;;;;;;;;;;1602164;30;22204;-68
2022/07/10 04:20:35;;;;;;;3.55;3.25;;;;;;;;;;1609966;30;22603;-68
2022/07/10 04:21:26;;;;;;;3.47;3.28;;;;;;;;;;1609187;30;21653;-68
2022/07/10 04:22:18;;;;;;;3.95;3.65;;;;;;;;;;1602183;30;21601;-68
2022/07/10 04:23:10;;;;;;;9.65;3.45;;;;;;;;;;1605690;30;21681;-67
2022/07/10 04:24:02;;;;;;;3.72;3.42;;;;;;;;;;1606297;30;22403;-67
2022/07/10 04:24:53;;;;;;;3.80;3.50;;;;;;;;;;1613072;30;21639;-67
2022/07/10 04:25:45;;;;;;;3.40;3.10;;;;;;;;;;1609270;30;22018;-67
2022/07/10 04:26:36;;;;;;;4.70;4.20;;;;;;;;;;1609284;30;21600;-69
2022/07/10 04:27:31;;;;;;;4.88;2.97;;;;;;;;;;1611967;30;21680;-68
2022/07/10 04:28:22;;;;;;;7.13;3.60;;;;;;;;;;1609103;30;22034;-68
2022/07/10 04:29:14;;;;;;;6.43;3.33;;;;;;;;;;1612193;30;22400;-69
2022/07/10 04:30:07;;;;;;;4.05;3.75;;;;;;;;;;1612957;30;21940;-68
2022/07/10 04:30:59;;;;;;;3.58;3.38;;;;;;;;;;1610416;30;21612;-67
2022/07/10 04:31:50;;;;;;;4.15;3.45;;;;;;;;;;1609993;30;22465;-68
2022/07/10 04:32:43;;;;;;;6.68;3.40;;;;;;;;;;1607517;30;21748;-68
2022/07/10 04:33:34;;;;;;;4.15;3.53;;;;;;;;;;1615002;30;22479;-69
2022/07/10 04:34:26;;;;;;;3.20;3.00;;;;;;;;;;1611962;30;21573;-69
2022/07/10 04:35:17;;;;;;;8.73;3.70;;;;;;;;;;1610706;30;22337;-68
2022/07/10 04:36:09;;;;;;;4.63;3.95;;;;;;;;;;1616960;30;21762;-68
2022/07/10 04:37:01;;;;;;;3.80;3.50;;;;;;;;;;1608149;30;21691;-68
2022/07/10 04:37:53;;;;;;;4.32;4.03;;;;;;;;;;1602424;30;22176;-67
2022/07/10 04:38:44;;;;;;;3.55;3.25;;;;;;;;;;1611631;30;21615;-68
2022/07/10 04:39:37;;;;;;;3.75;3.45;;;;;;;;;;1609706;30;21604;-67
2022/07/10 04:40:29;;;;;;;3.80;3.53;;;;;;;;;;1602298;30;22281;-67
2022/07/10 04:41:21;;;;;;;3.88;3.58;;;;;;;;;;1603874;30;21597;-68
2022/07/10 04:42:12;;;;;;;3.38;3.17;;;;;;;;;;1610303;30;21606;-68
2022/07/10 04:43:06;;;;;;;3.80;3.50;;;;;;;;;;1611584;30;22413;-68
2022/07/10 04:43:57;;;;;;;3.92;3.63;;;;;;;;;;1612048;30;21617;-69
2022/07/10 04:44:49;;;;;;;3.97;3.65;;;;;;;;;;1611853;30;21699;-68
2022/07/10 04:45:40;;;;;;;3.42;3.22;;;;;;;;;;1611766;30;21603;-67
2022/07/10 04:46:32;;;;;;;3.17;2.88;;;;;;;;;;1618235;30;21808;-68
2022/07/10 04:47:23;;;;;;;4.32;3.30;;;;;;;;;;1617660;30;22029;-69
2022/07/10 04:48:16;;;;;;;3.90;3.28;;;;;;;;;;1611646;30;21767;-69
2022/07/10 04:49:07;;;;;;;3.80;3.50;;;;;;;;;;1602902;30;22525;-66
2022/07/10 04:49:59;;;;;;;3.33;3.13;;;;;;;;;;1605560;30;21591;-68
2022/07/10 04:50:50;;;;;;;3.60;3.30;;;;;;;;;;1609876;30;21683;-68
2022/07/10 04:51:42;;;;;;;3.33;3.03;;;;;;;;;;1611783;30;22248;-68
2022/07/10 04:52:34;;;;;;;3.72;3.50;;;;;;;;;;1610983;30;21734;-68
2022/07/10 04:53:26;;;;;;;3.38;3.08;;;;;;;;;;1611462;30;21642;-68
2022/07/10 04:54:17;;;;;;;3.60;3.30;;;;;;;;;;1609309;30;21622;-69
2022/07/10 04:55:10;;;;;;;3.40;3.10;;;;;;;;;;1607188;30;21575;-68
2022/07/10 04:56:02;;;;;;;3.60;2.90;;;;;;;;;;1605655;30;21874;-67
2022/07/10 04:56:54;;;;;;;6.10;2.78;;;;;;;;;;1608061;30;21911;-68
2022/07/10 04:57:45;;;;;;;3.15;2.95;;;;;;;;;;1614859;30;21601;-68
2022/07/10 04:58:39;;;;;;;3.95;3.33;;;;;;;;;;1609686;30;21831;-68
2022/07/10 04:59:30;;;;;;;3.33;3.10;;;;;;;;;;1606904;30;22052;-68
2022/07/10 05:00:23;;;;;;;3.33;3.13;;;;;;;;;;1612361;30;21655;-67
2022/07/10 05:01:14;;;;;;;3.00;2.80;;;;;;;;;;1609894;30;21594;-67
2022/07/10 05:02:08;;;;;;;4.43;3.30;;;;;;;;;;1610961;30;21621;-67
2022/07/10 05:02:59;;;;;;;2.75;2.60;;;;;;;;;;1609127;30;21803;-68
2022/07/10 05:03:51;;;;;;;2.92;2.72;;;;;;;;;;1612789;30;21615;-68
2022/07/10 05:04:42;;;;;;;4.18;3.78;;;;;;;;;;1610835;30;22007;-69
2022/07/10 05:05:34;;;;;;;3.45;3.15;;;;;;;;;;1612669;30;21642;-68
2022/07/10 05:06:26;;;;;;;3.55;3.10;;;;;;;;;;1610214;30;22027;-69
2022/07/10 05:07:18;;;;;;;3.10;2.90;;;;;;;;;;1612622;30;21583;-67
2022/07/10 05:08:09;;;;;;;3.20;3.00;;;;;;;;;;1608772;30;22303;-68
2022/07/10 05:09:02;;;;;;;5.25;3.05;;;;;;;;;;1609135;30;22137;-67
2022/07/10 05:09:53;;;;;;;3.13;2.83;;;;;;;;;;1608693;30;21876;-69
2022/07/10 05:10:45;;;;;;;4.18;3.40;;;;;;;;;;1609928;30;21616;-68
2022/07/10 05:11:37;;;;;;;3.40;3.20;;;;;;;;;;1612993;30;21615;-68
2022/07/10 05:12:29;;;;;;;3.80;3.50;;;;;;;;;;1612004;30;21764;-67
2022/07/10 05:13:20;;;;;;;3.13;2.47;;;;;;;;;;1610256;30;21659;-67